• Join FlightAware (Why Join?)
  • Login
  • US Flag GB Flag 
01:54 EDT


 

Airport Tracker/Info


-or-


 

Live Flight TrackerFlight Track Log ✈ DAL1903 ✈ 17-Apr-2013 ✈ KLGA - KSRQ

Flight Track Log - Related Links

Times and Time Zones

All times are in EDT time to prevent confusion due to time zone crossing. See the DAL1903 flight status page for this flight to view local times or setup timezone preferences in your user account.

Time Position Orientation Groundspeed Altitude Reporting Facility
EDT Latitude Longitude Course Direction KTS MPH feet Rate Location/Type
11:25 40.8167 -73.8667 246° West 184 212 2,100  Level New York TRACON
11:26 40.8500 -73.9333 303° West 241 277 5,200 3,060 Climbing New York TRACON
11:27 40.8333 -74.0167 255° West 263 303 8,300 3,060 Climbing New York TRACON
11:28 40.5779 -74.4330 246° West  Level FlightAware Approximate
11:28 40.8000 -74.1167 246° West 272 313 11,400  Level New York TRACON
11:29 40.5333 -74.5776 270° West  Level FlightAware Approximate
11:29 40.7500 -74.2167 237° Southwest 336 387 13,000  Level New York TRACON
11:30 40.4901 -74.7198 237° Southwest  Level FlightAware Approximate
11:31 40.4452 -74.8644 246° West  Level FlightAware Approximate
11:31 40.6747 -74.3967 241° Southwest 386 444 15,000  Level New York Center
11:32 40.6275 -74.5033 240° Southwest 380 437 15,100 960 Climbing New York Center
11:33 40.5711 -74.6425 242° Southwest 386 444 17,000 1,800 Climbing New York Center
11:34 40.5172 -74.7567 238° Southwest 404 465 18,700 1,980 Climbing New York Center
11:35 40.4519 -74.8975 239° Southwest 415 478 21,000 2,100 Climbing New York Center
11:36 40.3806 -75.0267 234° Southwest 420 483 22,900 1,860 Climbing New York Center
11:37 40.2972 -75.1442 227° Southwest 437 503 24,800 2,100 Climbing New York Center
11:38 40.2178 -75.2614 228° Southwest 437 503 27,200 2,160 Climbing New York Center
11:39 40.1383 -75.3731 227° Southwest 437 503 29,200 1,800 Climbing New York Center
11:40 40.0567 -75.4869 227° Southwest 432 497 30,900 1,380 Climbing New York Center
11:41 39.9794 -75.5956 227° Southwest 425 489 32,100 1,200 Climbing New York Center
11:42 39.9042 -75.7014 227° Southwest 419 482 33,300 960 Climbing New York Center
11:43 39.8325 -75.8153 231° Southwest 419 482 34,000 180 Climbing New York Center
11:45 39.6942 -76.0392 231° Southwest 403 464 34,000  Level Washington Center
11:46 39.6247 -76.1464 230° Southwest 403 464 34,000  Level Washington Center
11:47 39.5492 -76.2589 229° Southwest 403 464 34,000  Level Washington Center
11:48 39.4778 -76.3686 230° Southwest 403 464 34,000  Level Washington Center
11:49 39.4083 -76.4806 231° Southwest 403 464 34,000  Level Washington Center
11:50 39.3386 -76.5897 230° Southwest 403 464 34,000  Level Washington Center
11:51 39.2689 -76.7014 231° Southwest 403 464 34,000  Level Washington Center
11:52 39.1969 -76.8075 229° Southwest 403 464 34,000  Level Washington Center
11:53 39.1206 -76.9267 230° Southwest 403 464 34,000  Level Washington Center
11:54 39.0550 -77.0217 228° Southwest 398 458 34,000  Level Washington Center
11:55 38.9619 -77.1292 222° Southwest 408 470 34,000  Level Washington Center
11:56 38.8753 -77.2236 220° Southwest 408 470 34,000  Level Washington Center
11:57 38.7906 -77.3175 221° Southwest 403 464 34,000  Level Washington Center
11:58 38.7017 -77.4139 220° Southwest 411 473 34,000  Level Washington Center
11:59 38.6167 -77.5047 220° Southwest 411 473 34,000  Level Washington Center
12:00 38.5381 -77.5931 221° Southwest 417 480 34,000  Level Washington Center
12:01 38.4447 -77.6964 221° Southwest 417 480 34,000  Level Washington Center
12:02 38.3639 -77.7789 219° Southwest 412 474 34,000  Level Washington Center
12:03 38.2703 -77.8819 221° Southwest 412 474 34,000  Level Washington Center
12:04 38.1831 -77.9717 219° Southwest 412 474 34,000  Level Washington Center
12:05 38.0936 -78.0667 220° Southwest 412 474 34,000  Level Washington Center
12:06 38.0233 -78.1381 219° Southwest 412 474 34,000 240 Level Washington Center
12:07 37.9206 -78.2531 221° Southwest 405 466 34,500  Climbing Washington Center
12:08 37.8269 -78.3392 216° Southwest 410 472 34,000 -300 Descending Washington Center
12:09 37.7417 -78.4150 215° Southwest 422 486 34,000  Level Washington Center
12:10 37.6350 -78.5131 216° Southwest 427 491 34,000  Level Washington Center
12:11 37.5433 -78.5986 217° Southwest 427 491 34,000  Level Washington Center
12:12 37.4450 -78.6889 216° Southwest 427 491 34,000  Level Washington Center
12:13 37.3508 -78.7767 217° Southwest 432 497 34,000  Level Washington Center
12:14 37.2547 -78.8614 215° Southwest 432 497 34,000  Level Washington Center
12:15 37.1669 -78.9436 217° Southwest 437 503 34,000  Level Washington Center
12:16 37.0706 -79.0306 216° Southwest 437 503 34,000  Level Washington Center
12:17 36.9761 -79.1200 217° Southwest 437 503 34,000  Level Washington Center
12:18 36.8817 -79.2092 217° Southwest 437 503 34,000  Level Washington Center
12:19 36.7872 -79.2981 217° Southwest 432 497 34,000  Level Washington Center
12:20 36.6842 -79.3942 217° Southwest 427 491 34,000  Level Washington Center
12:23 36.4636 -79.5936 216° Southwest 417 480 34,000  Level Atlanta Center
12:24 36.3708 -79.6811 217° Southwest 422 486 34,000  Level Atlanta Center
12:25 36.2739 -79.7661 215° Southwest 422 486 34,000  Level Atlanta Center
12:26 36.1808 -79.8508 216° Southwest 422 486 34,000  Level Atlanta Center
12:27 36.0736 -79.9489 216° Southwest 427 491 34,000  Level Atlanta Center
12:28 35.9672 -80.0133 206° Southwest 427 491 34,000  Level Atlanta Center
12:29 35.8544 -80.0728 203° Southwest 432 497 34,000  Level Atlanta Center
12:30 35.7414 -80.1269 201° Southwest 432 497 34,000  Level Atlanta Center
12:31 35.6328 -80.1831 203° Southwest 432 497 34,000  Level Atlanta Center
12:32 35.5197 -80.2369 201° Southwest 438 504 34,000  Level Atlanta Center
12:33 35.4086 -80.2906 201° Southwest 438 504 34,000  Level Atlanta Center
12:34 35.2936 -80.3492 203° Southwest 438 504 34,000  Level Atlanta Center
12:35 35.1806 -80.4050 202° Southwest 443 510 34,000  Level Atlanta Center
12:36 35.0653 -80.4608 202° Southwest 443 510 34,000  Level Atlanta Center
12:38 34.8064 -80.5994 204° Southwest 439 505 34,000  Level Jacksonville Center
12:39 34.6950 -80.6553 202° Southwest 434 499 34,000  Level Jacksonville Center
12:40 34.5625 -80.7167 201° Southwest 447 514 34,000  Level Jacksonville Center
12:41 34.4486 -80.7700 201° Southwest 441 507 34,000  Level Jacksonville Center
12:42 34.3411 -80.8203 201° Southwest 436 502 34,000  Level Jacksonville Center
12:43 34.2439 -80.8731 204° Southwest 431 496 34,000  Level Jacksonville Center
12:44 34.1339 -80.9231 201° Southwest 426 490 34,000  Level Jacksonville Center
12:45 34.0181 -80.9808 202° Southwest 437 503 34,000  Level Jacksonville Center
12:46 33.8917 -81.0361 200° South 442 509 34,000  Level Jacksonville Center
12:47 33.7819 -81.0908 203° Southwest 442 509 34,000  Level Jacksonville Center
12:48 33.6822 -81.1403 202° Southwest 437 503 34,000  Level Jacksonville Center
12:49 33.5706 -81.1975 203° Southwest 432 497 34,000  Level Jacksonville Center
12:50 33.4481 -81.2569 202° Southwest 438 504 34,000  Level Jacksonville Center
12:51 33.3403 -81.3114 203° Southwest 432 497 34,000  Level Jacksonville Center
12:52 33.2511 -81.3550 202° Southwest 432 497 34,000  Level Jacksonville Center
12:53 33.1203 -81.4194 202° Southwest 432 497 34,000  Level Jacksonville Center
12:54 33.0125 -81.4731 203° Southwest 432 497 34,000  Level Jacksonville Center
12:55 32.9022 -81.5269 202° Southwest 432 497 34,000  Level Jacksonville Center
12:56 32.7922 -81.5781 201° Southwest 432 497 34,000  Level Jacksonville Center
12:57 32.6842 -81.6314 203° Southwest 432 497 34,000  Level Jacksonville Center
12:58 32.5803 -81.6697 197° South 432 497 34,000  Level Jacksonville Center
12:59 32.4489 -81.6961 190° South 437 503 34,000  Level Jacksonville Center
13:00 32.3428 -81.7197 191° South 437 503 34,000  Level Jacksonville Center
13:01 32.2114 -81.7483 190° South 432 497 34,000  Level Jacksonville Center
13:02 32.0947 -81.7719 190° South 426 490 34,000  Level Jacksonville Center
13:03 31.9886 -81.7953 191° South 432 497 34,000  Level Jacksonville Center
13:04 31.8572 -81.8236 190° South 432 497 34,000  Level Jacksonville Center
13:05 31.7508 -81.8444 189° South 427 491 34,000  Level Jacksonville Center
13:06 31.6217 -81.8728 191° South 436 502 34,000  Level Jacksonville Center
13:07 31.5028 -81.8961 189° South 430 495 34,000  Level Jacksonville Center
13:08 31.3986 -81.9189 191° South 430 495 34,000  Level Jacksonville Center
13:09 31.2797 -81.9469 191° South 436 502 34,000  Level Jacksonville Center
13:10 31.1611 -81.9725 190° South 436 502 34,000  Level Jacksonville Center
13:11 31.0400 -81.9978 190° South 436 502 34,000  Level Jacksonville Center
13:12 30.9211 -82.0208 189° South 436 502 34,000  Level Jacksonville Center
13:13 30.8025 -82.0461 190° South 436 502 34,000  Level Jacksonville Center
13:14 30.6836 -82.0714 190° South 436 502 34,000  Level Jacksonville Center
13:15 30.5667 -82.0964 190° South 436 502 34,000  Level Jacksonville Center
13:16 30.4353 -82.1192 189° South 431 496 34,000  Level Jacksonville Center
13:17 30.3144 -82.1442 190° South 437 503 34,000 -660 Level Jacksonville Center
13:18 30.1936 -82.1692 190° South 443 510 32,700 -1,440 Descending Jacksonville Center
13:19 30.0664 -82.1967 191° South 454 522 31,200 -1,440 Descending Jacksonville Center
13:20 29.9517 -82.2236 192° South 465 535 29,900 -1,440 Descending Jacksonville Center
13:21 29.8264 -82.2486 190° South 465 535 28,400 -1,620 Descending Jacksonville Center
13:22 29.6889 -82.2686 187° South 465 535 26,700 -1,260 Descending Jacksonville Center
13:23 29.5614 -82.2550 175° South 460 529 25,900 -840 Descending Jacksonville Center
13:24 29.4361 -82.2344 172° South 460 529 25,100 -840 Descending Jacksonville Center
13:25 29.3169 -82.2139 171° South 455 524 24,300 -1,380 Descending Jacksonville Center
13:26 29.1958 -82.1956 172° South 443 510 22,400 -2,400 Descending Jacksonville Center
13:27 29.0808 -82.1797 173° South 431 496 19,600 -2,580 Descending Jacksonville Center
13:28 28.9681 -82.1617 172° South 421 484 17,300 -2,160 Descending Jacksonville Center
13:29 28.8742 -82.1506 174° South 407 468 15,300 -1,800 Descending Jacksonville Center
13:31 28.6833 -82.1167 171° South 375 432 12,400 -1,380 Descending Tampa TRACON
13:32 28.5833 -82.1000 172° South 372 428 11,600 -660 Descending Tampa TRACON
13:33 28.4833 -82.1000 180° South 364 419 11,100 -300 Descending Tampa TRACON
13:34 28.3833 -82.1167 188° South 360 414 11,100  Level Tampa TRACON
13:35 28.2833 -82.1333 188° South 360 414 11,100  Level Tampa TRACON
13:36 28.1667 -82.1500 187° South 357 411 11,100  Level Tampa TRACON
13:37 28.0833 -82.1667 190° South 325 374 11,100 -660 Level Tampa TRACON
13:38 28.0000 -82.1833 190° South 300 345 9,900 -1,380 Descending Tampa TRACON
13:39 27.9167 -82.2000 190° South 287 330 8,400 -1,560 Descending Tampa TRACON
13:40 27.8500 -82.2167 192° South 285 328 6,800 -1,140 Descending Tampa TRACON
13:41 27.7667 -82.2333 190° South 274 315 6,100 -360 Descending Tampa TRACON
13:42 27.7000 -82.3000 222° Southwest 276 318 6,100  Level Tampa TRACON
13:43 27.6500 -82.3500 222° Southwest 276 318 6,100 -840 Level Tampa TRACON
13:44 27.6000 -82.4167 230° Southwest 278 320 4,500 -1,380 Descending Tampa TRACON
13:45 27.5500 -82.4833 230° Southwest 269 310 3,300 -1,200 Descending Tampa TRACON